Pretty Lake, Indiana
Current Conditions -  °F | °C
As of 7:35 PM on Friday 28 Nov 2014 (Local Time) from KANQ Reporting Station
Overcast Overcast  
Wind Chill: 17°   Ceiling: 9500
Heat Index: 27°   Visibility: 10mi
Dew Point: 19°   Wind: 9mph
Humidity: 74%   Direction: 160°SSE
Pressure: 30.06"   Gusts: NA
Location:  41.5677°N, 85.3125°W
Report Text: KANQ 290035Z AUTO 16008KT 10SM FEW065 BKN095 OVC110 M03/M07 A3006 RMK
Loading
Personal Weather Stations






























Interactive Weather Map New forecast layout! Learn more

10-Day Weather Forecast

Advertisements
Track Severe Weather on mobile